sensor_id;sensor_type;location;lat;lon;timestamp;pressure;altitude;pressure_sealevel;temperature;humidity
44140;BME280;29803;51.048;4.686;2023-03-19T00:01:45;101075.72;;;10.12;100.00
44140;BME280;29803;51.048;4.686;2023-03-19T00:04:16;101086.59;;;10.10;100.00
44140;BME280;29803;51.048;4.686;2023-03-19T00:06:46;101085.06;;;10.08;100.00
44140;BME280;29803;51.048;4.686;2023-03-19T00:09:18;101091.44;;;10.07;100.00
44140;BME280;29803;51.048;4.686;2023-03-19T00:11:49;101089.03;;;10.04;100.00
44140;BME280;29803;51.048;4.686;2023-03-19T00:14:19;101092.91;;;10.01;100.00
44140;BME280;29803;51.048;4.686;2023-03-19T00:16:50;101095.88;;;9.98;100.00
44140;BME280;29803;51.048;4.686;2023-03-19T00:19:20;101100.41;;;9.98;100.00
44140;BME280;29803;51.048;4.686;2023-03-19T00:21:51;101100.56;;;9.96;100.00
44140;BME280;29803;51.048;4.686;2023-03-19T00:24:21;101095.22;;;9.96;100.00
44140;BME280;29803;51.048;4.686;2023-03-19T00:26:52;101098.72;;;9.97;100.00
44140;BME280;29803;51.048;4.686;2023-03-19T00:29:23;101089.84;;;9.96;100.00
44140;BME280;29803;51.048;4.686;2023-03-19T00:31:53;101097.88;;;9.96;100.00
44140;BME280;29803;51.048;4.686;2023-03-19T00:34:24;101093.66;;;9.94;100.00
44140;BME280;29803;51.048;4.686;2023-03-19T00:36:54;101093.66;;;9.94;100.00
44140;BME280;29803;51.048;4.686;2023-03-19T00:39:26;101094.84;;;9.91;100.00
44140;BME280;29803;51.048;4.686;2023-03-19T00:41:56;101090.47;;;9.90;100.00
44140;BME280;29803;51.048;4.686;2023-03-19T00:44:26;101087.25;;;9.86;100.00
44140;BME280;29803;51.048;4.686;2023-03-19T00:46:57;101090.09;;;9.85;100.00
44140;BME280;29803;51.048;4.686;2023-03-19T00:49:27;101091.09;;;9.84;100.00
44140;BME280;29803;51.048;4.686;2023-03-19T00:51:58;101086.22;;;9.79;100.00
44140;BME280;29803;51.048;4.686;2023-03-19T00:54:28;101096.59;;;9.82;100.00
44140;BME280;29803;51.048;4.686;2023-03-19T00:57:01;101099.59;;;9.79;100.00
44140;BME280;29803;51.048;4.686;2023-03-19T00:59:31;101105.09;;;9.78;100.00
44140;BME280;29803;51.048;4.686;2023-03-19T01:02:02;101107.78;;;9.78;100.00
44140;BME280;29803;51.048;4.686;2023-03-19T01:04:33;101102.75;;;9.75;100.00
44140;BME280;29803;51.048;4.686;2023-03-19T01:07:04;101104.59;;;9.74;100.00
44140;BME280;29803;51.048;4.686;2023-03-19T01:09:34;101108.94;;;9.75;100.00
44140;BME280;29803;51.048;4.686;2023-03-19T01:12:05;101103.72;;;9.74;100.00
44140;BME280;29803;51.048;4.686;2023-03-19T01:14:36;101110.78;;;9.75;100.00
44140;BME280;29803;51.048;4.686;2023-03-19T01:17:06;101111.63;;;9.75;100.00
44140;BME280;29803;51.048;4.686;2023-03-19T01:19:37;101109.94;;;9.74;100.00
44140;BME280;29803;51.048;4.686;2023-03-19T01:22:07;101116.28;;;9.73;100.00
44140;BME280;29803;51.048;4.686;2023-03-19T01:24:38;101107.41;;;9.73;100.00
44140;BME280;29803;51.048;4.686;2023-03-19T01:27:09;101102.88;;;9.73;100.00
44140;BME280;29803;51.048;4.686;2023-03-19T01:29:39;101110.91;;;9.73;100.00
44140;BME280;29803;51.048;4.686;2023-03-19T01:32:10;101107.28;;;9.74;100.00
44140;BME280;29803;51.048;4.686;2023-03-19T01:34:41;101105.44;;;9.75;100.00
44140;BME280;29803;51.048;4.686;2023-03-19T01:37:11;101121.34;;;9.76;100.00
44140;BME280;29803;51.048;4.686;2023-03-19T01:39:41;101115.97;;;9.76;100.00
44140;BME280;29803;51.048;4.686;2023-03-19T01:42:12;101120.22;;;9.79;100.00
44140;BME280;29803;51.048;4.686;2023-03-19T01:44:43;101115.53;;;9.81;100.00
44140;BME280;29803;51.048;4.686;2023-03-19T01:47:15;101109.31;;;9.80;100.00
44140;BME280;29803;51.048;4.686;2023-03-19T01:49:51;101114.50;;;9.82;100.00
44140;BME280;29803;51.048;4.686;2023-03-19T01:52:24;101123.09;;;9.85;100.00
44140;BME280;29803;51.048;4.686;2023-03-19T01:54:58;101121.25;;;9.86;100.00
44140;BME280;29803;51.048;4.686;2023-03-19T01:57:31;101118.56;;;9.86;100.00
44140;BME280;29803;51.048;4.686;2023-03-19T02:00:03;101112.22;;;9.87;100.00
44140;BME280;29803;51.048;4.686;2023-03-19T02:02:36;101113.06;;;9.88;100.00
44140;BME280;29803;51.048;4.686;2023-03-19T02:05:09;101117.09;;;9.92;100.00
44140;BME280;29803;51.048;4.686;2023-03-19T02:07:43;101117.84;;;10.02;100.00
44140;BME280;29803;51.048;4.686;2023-03-19T02:10:16;101119.41;;;10.04;100.00
44140;BME280;29803;51.048;4.686;2023-03-19T02:12:47;101120.06;;;10.06;100.00
44140;BME280;29803;51.048;4.686;2023-03-19T02:15:18;101123.75;;;10.05;100.00
44140;BME280;29803;51.048;4.686;2023-03-19T02:17:48;101122.59;;;10.08;100.00
44140;BME280;29803;51.048;4.686;2023-03-19T02:26:11;101120.63;;;10.10;100.00
44140;BME280;29803;51.048;4.686;2023-03-19T02:28:45;101124.81;;;10.12;100.00
44140;BME280;29803;51.048;4.686;2023-03-19T02:31:17;101123.13;;;10.11;100.00
44140;BME280;29803;51.048;4.686;2023-03-19T02:33:59;101118.59;;;10.12;100.00
44140;BME280;29803;51.048;4.686;2023-03-19T02:36:35;101121.13;;;10.13;100.00
44140;BME280;29803;51.048;4.686;2023-03-19T02:39:13;101125.63;;;10.13;100.00
44140;BME280;29803;51.048;4.686;2023-03-19T02:41:47;101115.25;;;10.10;100.00
44140;BME280;29803;51.048;4.686;2023-03-19T02:44:20;101117.75;;;10.11;100.00
44140;BME280;29803;51.048;4.686;2023-03-19T02:46:51;101117.59;;;10.13;100.00
44140;BME280;29803;51.048;4.686;2023-03-19T02:49:21;101124.81;;;10.12;100.00
44140;BME280;29803;51.048;4.686;2023-03-19T02:51:52;101131.00;;;10.13;100.00
44140;BME280;29803;51.048;4.686;2023-03-19T02:54:22;101133.69;;;10.13;100.00
44140;BME280;29803;51.048;4.686;2023-03-19T02:57:04;101133.69;;;10.13;100.00
44140;BME280;29803;51.048;4.686;2023-03-19T02:59:35;101126.81;;;10.10;100.00
44140;BME280;29803;51.048;4.686;2023-03-19T03:02:05;101126.09;;;10.08;100.00
44140;BME280;29803;51.048;4.686;2023-03-19T03:04:36;101129.13;;;10.05;100.00
44140;BME280;29803;51.048;4.686;2023-03-19T03:07:17;101124.06;;;10.02;100.00
44140;BME280;29803;51.048;4.686;2023-03-19T03:09:48;101120.16;;;9.97;100.00
44140;BME280;29803;51.048;4.686;2023-03-19T03:12:18;101119.97;;;9.90;100.00
44140;BME280;29803;51.048;4.686;2023-03-19T03:14:49;101108.84;;;9.85;100.00
44140;BME280;29803;51.048;4.686;2023-03-19T03:17:20;101115.69;;;9.79;100.00
44140;BME280;29803;51.048;4.686;2023-03-19T03:19:51;101112.75;;;9.73;100.00
44140;BME280;29803;51.048;4.686;2023-03-19T03:22:22;101113.69;;;9.64;100.00
44140;BME280;29803;51.048;4.686;2023-03-19T03:24:53;101123.34;;;9.56;100.00
44140;BME280;29803;51.048;4.686;2023-03-19T03:27:23;101127.63;;;9.49;100.00
44140;BME280;29803;51.048;4.686;2023-03-19T03:29:54;101124.84;;;9.41;100.00
44140;BME280;29803;51.048;4.686;2023-03-19T03:32:24;101130.28;;;9.31;100.00
44140;BME280;29803;51.048;4.686;2023-03-19T03:34:55;101127.50;;;9.23;100.00
44140;BME280;29803;51.048;4.686;2023-03-19T03:37:26;101134.63;;;9.15;100.00
44140;BME280;29803;51.048;4.686;2023-03-19T03:39:57;101136.50;;;9.04;100.00
44140;BME280;29803;51.048;4.686;2023-03-19T03:42:27;101132.50;;;8.91;100.00
44140;BME280;29803;51.048;4.686;2023-03-19T03:44:57;101135.50;;;8.78;100.00
44140;BME280;29803;51.048;4.686;2023-03-19T03:47:28;101141.03;;;8.67;100.00
44140;BME280;29803;51.048;4.686;2023-03-19T03:49:58;101147.41;;;8.56;100.00
44140;BME280;29803;51.048;4.686;2023-03-19T03:52:30;101140.13;;;8.48;100.00
44140;BME280;29803;51.048;4.686;2023-03-19T03:55:00;101137.88;;;8.44;100.00
44140;BME280;29803;51.048;4.686;2023-03-19T03:57:31;101141.69;;;8.41;100.00
44140;BME280;29803;51.048;4.686;2023-03-19T04:00:03;101149.03;;;8.39;100.00
44140;BME280;29803;51.048;4.686;2023-03-19T04:02:34;101144.34;;;8.41;100.00
44140;BME280;29803;51.048;4.686;2023-03-19T04:05:05;101143.38;;;8.42;100.00
44140;BME280;29803;51.048;4.686;2023-03-19T04:07:37;101135.66;;;8.39;100.00
44140;BME280;29803;51.048;4.686;2023-03-19T04:10:09;101143.94;;;8.36;100.00
44140;BME280;29803;51.048;4.686;2023-03-19T04:12:40;101140.84;;;8.31;100.00
44140;BME280;29803;51.048;4.686;2023-03-19T04:15:11;101139.19;;;8.20;100.00
44140;BME280;29803;51.048;4.686;2023-03-19T04:17:42;101142.00;;;8.09;100.00
44140;BME280;29803;51.048;4.686;2023-03-19T04:20:12;101140.03;;;8.01;100.00
44140;BME280;29803;51.048;4.686;2023-03-19T04:22:45;101137.53;;;7.90;100.00
44140;BME280;29803;51.048;4.686;2023-03-19T04:25:16;101151.44;;;7.84;100.00
44140;BME280;29803;51.048;4.686;2023-03-19T04:27:47;101152.88;;;7.78;100.00
44140;BME280;29803;51.048;4.686;2023-03-19T04:30:18;101153.69;;;7.79;100.00
44140;BME280;29803;51.048;4.686;2023-03-19T04:32:49;101151.44;;;7.84;100.00
44140;BME280;29803;51.048;4.686;2023-03-19T04:35:19;101160.72;;;7.80;100.00
44140;BME280;29803;51.048;4.686;2023-03-19T04:37:50;101160.16;;;7.67;100.00
44140;BME280;29803;51.048;4.686;2023-03-19T04:40:21;101161.28;;;7.55;100.00
44140;BME280;29803;51.048;4.686;2023-03-19T04:42:51;101170.53;;;7.41;100.00
44140;BME280;29803;51.048;4.686;2023-03-19T04:45:22;101168.56;;;7.33;100.00
44140;BME280;29803;51.048;4.686;2023-03-19T04:47:54;101165.88;;;7.23;100.00
44140;BME280;29803;51.048;4.686;2023-03-19T04:50:25;101166.09;;;7.11;100.00
44140;BME280;29803;51.048;4.686;2023-03-19T04:52:56;101173.66;;;7.06;100.00
44140;BME280;29803;51.048;4.686;2023-03-19T04:55:27;101169.56;;;7.01;100.00
44140;BME280;29803;51.048;4.686;2023-03-19T04:57:57;101171.53;;;6.99;100.00
44140;BME280;29803;51.048;4.686;2023-03-19T05:00:28;101175.75;;;7.02;100.00
44140;BME280;29803;51.048;4.686;2023-03-19T05:02:59;101176.47;;;7.04;100.00
44140;BME280;29803;51.048;4.686;2023-03-19T05:05:30;101180.97;;;7.04;100.00
44140;BME280;29803;51.048;4.686;2023-03-19T05:08:00;101181.22;;;7.00;100.00
44140;BME280;29803;51.048;4.686;2023-03-19T05:10:32;101181.81;;;7.04;100.00
44140;BME280;29803;51.048;4.686;2023-03-19T05:13:03;101183.34;;;7.07;100.00
44140;BME280;29803;51.048;4.686;2023-03-19T05:15:34;101186.75;;;7.09;100.00
44140;BME280;29803;51.048;4.686;2023-03-19T05:18:04;101185.91;;;7.08;100.00
44140;BME280;29803;51.048;4.686;2023-03-19T05:20:35;101185.19;;;7.06;100.00
44140;BME280;29803;51.048;4.686;2023-03-19T05:23:06;101181.22;;;7.00;100.00
44140;BME280;29803;51.048;4.686;2023-03-19T05:25:36;101193.03;;;6.98;100.00
44140;BME280;29803;51.048;4.686;2023-03-19T05:28:07;101177.44;;;6.93;100.00
44140;BME280;29803;51.048;4.686;2023-03-19T05:30:38;101184.25;;;6.86;100.00
44140;BME280;29803;51.048;4.686;2023-03-19T05:33:08;101186.03;;;6.76;100.00
44140;BME280;29803;51.048;4.686;2023-03-19T05:35:39;101193.88;;;6.68;100.00
44140;BME280;29803;51.048;4.686;2023-03-19T05:38:10;101198.03;;;6.61;100.00
44140;BME280;29803;51.048;4.686;2023-03-19T05:40:41;101197.03;;;6.62;100.00
44140;BME280;29803;51.048;4.686;2023-03-19T05:43:11;101205.03;;;6.62;100.00
44140;BME280;29803;51.048;4.686;2023-03-19T05:45:41;101199.00;;;6.60;100.00
44140;BME280;29803;51.048;4.686;2023-03-19T05:48:12;101205.19;;;6.60;100.00
44140;BME280;29803;51.048;4.686;2023-03-19T05:50:43;101207.22;;;6.68;100.00
44140;BME280;29803;51.048;4.686;2023-03-19T05:53:14;101205.00;;;6.73;100.00
44140;BME280;29803;51.048;4.686;2023-03-19T05:55:44;101211.22;;;6.83;100.00
44140;BME280;29803;51.048;4.686;2023-03-19T05:58:15;101213.59;;;6.86;100.00
44140;BME280;29803;51.048;4.686;2023-03-19T06:00:46;101218.22;;;6.84;100.00
44140;BME280;29803;51.048;4.686;2023-03-19T06:03:17;101206.84;;;6.82;100.00
44140;BME280;29803;51.048;4.686;2023-03-19T06:05:48;101213.16;;;6.81;100.00
44140;BME280;29803;51.048;4.686;2023-03-19T06:08:20;101206.38;;;6.77;100.00
44140;BME280;29803;51.048;4.686;2023-03-19T06:10:51;101210.19;;;6.74;100.00
44140;BME280;29803;51.048;4.686;2023-03-19T06:13:22;101214.78;;;6.72;100.00
44140;BME280;29803;51.048;4.686;2023-03-19T06:15:52;101219.56;;;6.69;100.00
44140;BME280;29803;51.048;4.686;2023-03-19T06:18:23;101224.16;;;6.67;100.00
44140;BME280;29803;51.048;4.686;2023-03-19T06:20:53;101224.88;;;6.69;100.00
44140;BME280;29803;51.048;4.686;2023-03-19T06:23:24;101227.84;;;6.75;100.00
44140;BME280;29803;51.048;4.686;2023-03-19T06:25:54;101229.19;;;6.91;100.00
44140;BME280;29803;51.048;4.686;2023-03-19T06:28:25;101228.44;;;7.10;100.00
44140;BME280;29803;51.048;4.686;2023-03-19T06:30:55;101240.69;;;7.22;100.00
44140;BME280;29803;51.048;4.686;2023-03-19T06:33:26;101238.66;;;7.35;100.00
44140;BME280;29803;51.048;4.686;2023-03-19T06:36:01;101239.28;;;7.68;100.00
44140;BME280;29803;51.048;4.686;2023-03-19T06:38:31;101243.41;;;7.91;100.00
44140;BME280;29803;51.048;4.686;2023-03-19T06:41:02;101239.03;;;8.00;100.00
44140;BME280;29803;51.048;4.686;2023-03-19T06:43:32;101249.44;;;8.03;100.00
44140;BME280;29803;51.048;4.686;2023-03-19T06:46:07;101249.31;;;8.04;100.00
44140;BME280;29803;51.048;4.686;2023-03-19T06:48:38;101250.00;;;8.16;100.00
44140;BME280;29803;51.048;4.686;2023-03-19T06:51:09;101250.19;;;8.53;100.00
44140;BME280;29803;51.048;4.686;2023-03-19T06:53:39;101254.88;;;8.89;100.00
44140;BME280;29803;51.048;4.686;2023-03-19T06:56:10;101261.66;;;9.20;100.00
44140;BME280;29803;51.048;4.686;2023-03-19T06:58:40;101264.31;;;9.30;100.00
44140;BME280;29803;51.048;4.686;2023-03-19T07:01:11;101270.53;;;9.21;100.00
44140;BME280;29803;51.048;4.686;2023-03-19T07:03:41;101261.97;;;9.07;100.00
44140;BME280;29803;51.048;4.686;2023-03-19T07:06:12;101271.59;;;9.00;100.00
44140;BME280;29803;51.048;4.686;2023-03-19T07:08:42;101268.25;;;8.89;100.00
44140;BME280;29803;51.048;4.686;2023-03-19T07:11:15;101268.81;;;8.82;100.00
44140;BME280;29803;51.048;4.686;2023-03-19T07:13:46;101275.19;;;8.72;100.00
44140;BME280;29803;51.048;4.686;2023-03-19T07:16:16;101283.09;;;8.64;100.00
44140;BME280;29803;51.048;4.686;2023-03-19T07:18:47;101286.31;;;8.57;100.00
44140;BME280;29803;51.048;4.686;2023-03-19T07:21:17;101295.19;;;8.58;100.00
44140;BME280;29803;51.048;4.686;2023-03-19T07:23:48;101291.66;;;8.57;100.00
44140;BME280;29803;51.048;4.686;2023-03-19T07:26:20;101287.72;;;8.62;100.00
44140;BME280;29803;51.048;4.686;2023-03-19T07:28:50;101300.31;;;8.98;100.00
44140;BME280;29803;51.048;4.686;2023-03-19T07:31:20;101306.72;;;9.34;100.00
44140;BME280;29803;51.048;4.686;2023-03-19T07:33:51;101301.97;;;9.74;100.00
44140;BME280;29803;51.048;4.686;2023-03-19T07:36:21;101300.84;;;10.57;100.00
44140;BME280;29803;51.048;4.686;2023-03-19T07:38:52;101307.72;;;11.30;100.00
44140;BME280;29803;51.048;4.686;2023-03-19T07:41:22;101301.28;;;11.99;100.00
44140;BME280;29803;51.048;4.686;2023-03-19T07:43:53;101295.97;;;12.97;100.00
44140;BME280;29803;51.048;4.686;2023-03-19T07:46:23;101283.50;;;12.88;100.00
44140;BME280;29803;51.048;4.686;2023-03-19T07:48:54;101293.38;;;13.20;100.00
44140;BME280;29803;51.048;4.686;2023-03-19T07:51:25;101289.31;;;13.40;100.00
44140;BME280;29803;51.048;4.686;2023-03-19T07:53:55;101295.25;;;14.06;100.00
44140;BME280;29803;51.048;4.686;2023-03-19T07:56:26;101288.25;;;13.50;100.00
44140;BME280;29803;51.048;4.686;2023-03-19T07:58:56;101288.72;;;13.92;100.00
44140;BME280;29803;51.048;4.686;2023-03-19T08:01:27;101295.03;;;14.31;100.00
44140;BME280;29803;51.048;4.686;2023-03-19T08:03:58;101295.31;;;14.67;100.00
44140;BME280;29803;51.048;4.686;2023-03-19T08:06:28;101299.13;;;13.72;100.00
44140;BME280;29803;51.048;4.686;2023-03-19T08:08:59;101298.31;;;12.84;100.00
44140;BME280;29803;51.048;4.686;2023-03-19T08:11:29;101301.69;;;12.69;100.00
44140;BME280;29803;51.048;4.686;2023-03-19T08:14:00;101304.53;;;12.84;100.00
44140;BME280;29803;51.048;4.686;2023-03-19T08:16:31;101304.50;;;13.25;100.00
44140;BME280;29803;51.048;4.686;2023-03-19T08:19:02;101303.00;;;13.70;100.00
44140;BME280;29803;51.048;4.686;2023-03-19T08:21:32;101300.59;;;14.37;100.00
44140;BME280;29803;51.048;4.686;2023-03-19T08:24:03;101293.69;;;15.10;100.00
44140;BME280;29803;51.048;4.686;2023-03-19T08:26:33;101299.97;;;15.40;100.00
44140;BME280;29803;51.048;4.686;2023-03-19T08:29:04;101295.94;;;14.92;100.00
44140;BME280;29803;51.048;4.686;2023-03-19T08:31:35;101296.16;;;14.21;100.00
44140;BME280;29803;51.048;4.686;2023-03-19T08:34:07;101302.56;;;14.43;100.00
44140;BME280;29803;51.048;4.686;2023-03-19T08:36:39;101293.06;;;15.38;100.00
44140;BME280;29803;51.048;4.686;2023-03-19T08:39:10;101304.78;;;15.60;100.00
44140;BME280;29803;51.048;4.686;2023-03-19T08:41:40;101302.28;;;15.88;100.00
44140;BME280;29803;51.048;4.686;2023-03-19T08:44:10;101309.91;;;15.99;100.00
44140;BME280;29803;51.048;4.686;2023-03-19T08:46:41;101308.25;;;16.41;100.00
44140;BME280;29803;51.048;4.686;2023-03-19T08:49:11;101310.66;;;16.29;100.00
44140;BME280;29803;51.048;4.686;2023-03-19T08:51:42;101318.59;;;15.94;100.00
44140;BME280;29803;51.048;4.686;2023-03-19T08:54:12;101319.00;;;15.76;100.00
44140;BME280;29803;51.048;4.686;2023-03-19T08:56:43;101315.00;;;15.72;100.00
44140;BME280;29803;51.048;4.686;2023-03-19T08:59:13;101322.91;;;15.59;100.00
44140;BME280;29803;51.048;4.686;2023-03-19T09:01:44;101323.81;;;15.81;100.00
44140;BME280;29803;51.048;4.686;2023-03-19T09:04:14;101326.59;;;15.14;100.00
44140;BME280;29803;51.048;4.686;2023-03-19T09:06:45;101336.16;;;14.41;100.00
44140;BME280;29803;51.048;4.686;2023-03-19T09:09:21;101345.38;;;13.92;100.00
44140;BME280;29803;51.048;4.686;2023-03-19T09:11:53;101345.19;;;13.55;100.00
44140;BME280;29803;51.048;4.686;2023-03-19T09:14:23;101348.19;;;13.60;100.00
44140;BME280;29803;51.048;4.686;2023-03-19T09:16:53;101352.75;;;13.59;100.00
44140;BME280;29803;51.048;4.686;2023-03-19T09:19:24;101350.78;;;13.92;100.00
44140;BME280;29803;51.048;4.686;2023-03-19T09:21:55;101349.44;;;13.88;100.00
44140;BME280;29803;51.048;4.686;2023-03-19T09:24:26;101351.56;;;14.01;100.00
44140;BME280;29803;51.048;4.686;2023-03-19T09:26:56;101355.75;;;14.04;100.00
44140;BME280;29803;51.048;4.686;2023-03-19T09:29:27;101355.66;;;13.89;100.00
44140;BME280;29803;51.048;4.686;2023-03-19T09:31:57;101353.06;;;14.04;100.00
44140;BME280;29803;51.048;4.686;2023-03-19T09:34:29;101361.59;;;14.15;100.00
44140;BME280;29803;51.048;4.686;2023-03-19T09:37:00;101357.72;;;14.72;100.00
44140;BME280;29803;51.048;4.686;2023-03-19T09:39:31;101354.69;;;15.42;100.00
44140;BME280;29803;51.048;4.686;2023-03-19T09:44:40;101366.63;;;15.33;100.00
44140;BME280;29803;51.048;4.686;2023-03-19T09:47:28;101368.00;;;15.29;100.00
44140;BME280;29803;51.048;4.686;2023-03-19T09:50:04;101371.66;;;15.21;100.00
44140;BME280;29803;51.048;4.686;2023-03-19T09:52:56;101371.34;;;16.20;100.00
44140;BME280;29803;51.048;4.686;2023-03-19T09:58:00;101368.47;;;16.79;100.00
44140;BME280;29803;51.048;4.686;2023-03-19T10:00:35;101375.72;;;16.57;100.00
44140;BME280;29803;51.048;4.686;2023-03-19T10:15:21;101396.53;;;14.94;100.00
44140;BME280;29803;51.048;4.686;2023-03-19T10:18:20;101395.00;;;14.76;100.00
44140;BME280;29803;51.048;4.686;2023-03-19T10:20:55;101402.19;;;14.61;100.00
44140;BME280;29803;51.048;4.686;2023-03-19T10:26:21;101396.97;;;14.20;100.00
44140;BME280;29803;51.048;4.686;2023-03-19T10:29:14;101405.25;;;14.19;100.00
44140;BME280;29803;51.048;4.686;2023-03-19T10:31:51;101402.75;;;14.17;100.00
44140;BME280;29803;51.048;4.686;2023-03-19T10:39:35;101414.25;;;14.11;100.00
44140;BME280;29803;51.048;4.686;2023-03-19T10:47:56;101410.88;;;14.09;100.00
44140;BME280;29803;51.048;4.686;2023-03-19T10:50:37;101410.56;;;14.04;100.00
44140;BME280;29803;51.048;4.686;2023-03-19T10:55:46;101405.78;;;13.75;100.00
44140;BME280;29803;51.048;4.686;2023-03-19T10:58:19;101406.31;;;13.70;100.00
44140;BME280;29803;51.048;4.686;2023-03-19T11:00:57;101415.25;;;14.10;100.00
44140;BME280;29803;51.048;4.686;2023-03-19T11:03:29;101413.16;;;14.20;100.00
44140;BME280;29803;51.048;4.686;2023-03-19T11:06:04;101415.44;;;14.40;100.00
44140;BME280;29803;51.048;4.686;2023-03-19T11:08:36;101418.63;;;14.74;100.00
44140;BME280;29803;51.048;4.686;2023-03-19T11:11:32;101417.72;;;15.05;100.00
44140;BME280;29803;51.048;4.686;2023-03-19T11:14:05;101417.66;;;15.13;100.00
44140;BME280;29803;51.048;4.686;2023-03-19T11:16:47;101404.38;;;15.26;100.00
44140;BME280;29803;51.048;4.686;2023-03-19T11:22:28;101413.72;;;14.78;100.00
44140;BME280;29803;51.048;4.686;2023-03-19T11:28:11;101416.22;;;14.57;100.00
44140;BME280;29803;51.048;4.686;2023-03-19T11:33:48;101417.81;;;14.97;100.00
44140;BME280;29803;51.048;4.686;2023-03-19T11:47:33;101421.44;;;15.27;100.00
44140;BME280;29803;51.048;4.686;2023-03-19T11:50:18;101422.97;;;14.84;100.00
44140;BME280;29803;51.048;4.686;2023-03-19T11:53:20;101419.53;;;14.67;100.00
44140;BME280;29803;51.048;4.686;2023-03-19T11:59:28;101434.91;;;14.27;100.00
44140;BME280;29803;51.048;4.686;2023-03-19T12:02:24;101421.97;;;14.14;100.00
44140;BME280;29803;51.048;4.686;2023-03-19T12:22:14;101452.00;;;12.90;100.00
44140;BME280;29803;51.048;4.686;2023-03-19T12:25:02;101450.47;;;12.88;100.00
44140;BME280;29803;51.048;4.686;2023-03-19T12:30:58;101447.97;;;13.11;100.00
44140;BME280;29803;51.048;4.686;2023-03-19T12:33:54;101455.25;;;13.27;100.00
44140;BME280;29803;51.048;4.686;2023-03-19T12:36:33;101447.09;;;13.59;100.00
44140;BME280;29803;51.048;4.686;2023-03-19T12:39:25;101452.22;;;14.02;100.00
44140;BME280;29803;51.048;4.686;2023-03-19T12:41:57;101449.47;;;14.18;100.00
44140;BME280;29803;51.048;4.686;2023-03-19T12:44:34;101459.69;;;14.31;100.00
44140;BME280;29803;51.048;4.686;2023-03-19T12:47:12;101459.84;;;14.29;100.00
44140;BME280;29803;51.048;4.686;2023-03-19T12:50:05;101457.03;;;14.22;100.00
44140;BME280;29803;51.048;4.686;2023-03-19T12:52:39;101452.38;;;14.08;100.00
44140;BME280;29803;51.048;4.686;2023-03-19T12:55:26;101455.34;;;14.21;100.00
44140;BME280;29803;51.048;4.686;2023-03-19T12:58:13;101462.06;;;14.25;100.00
44140;BME280;29803;51.048;4.686;2023-03-19T13:00:53;101460.72;;;14.61;100.00
44140;BME280;29803;51.048;4.686;2023-03-19T13:06:26;101466.38;;;14.82;100.00
44140;BME280;29803;51.048;4.686;2023-03-19T13:12:14;101462.47;;;14.45;100.00
44140;BME280;29803;51.048;4.686;2023-03-19T13:18:16;101476.34;;;13.95;100.00
44140;BME280;29803;51.048;4.686;2023-03-19T13:23:47;101469.56;;;14.07;100.00
44140;BME280;29803;51.048;4.686;2023-03-19T13:26:18;101465.16;;;14.14;100.00
44140;BME280;29803;51.048;4.686;2023-03-19T13:28:58;101472.47;;;14.06;100.00
44140;BME280;29803;51.048;4.686;2023-03-19T13:31:33;101471.66;;;13.89;100.00
44140;BME280;29803;51.048;4.686;2023-03-19T13:36:52;101471.31;;;13.92;100.00
44140;BME280;29803;51.048;4.686;2023-03-19T13:39:27;101477.69;;;13.99;100.00
44140;BME280;29803;51.048;4.686;2023-03-19T13:47:50;101481.19;;;14.16;100.00
44140;BME280;29803;51.048;4.686;2023-03-19T13:50:22;101473.50;;;14.36;100.00
44140;BME280;29803;51.048;4.686;2023-03-19T13:56:03;101472.28;;;15.00;100.00
44140;BME280;29803;51.048;4.686;2023-03-19T14:01:36;101458.03;;;14.92;100.00
44140;BME280;29803;51.048;4.686;2023-03-19T14:04:26;101465.09;;;14.93;100.00
44140;BME280;29803;51.048;4.686;2023-03-19T14:07:11;101472.72;;;14.89;100.00
44140;BME280;29803;51.048;4.686;2023-03-19T14:09:47;101472.53;;;15.14;100.00
44140;BME280;29803;51.048;4.686;2023-03-19T14:14:53;101481.53;;;15.52;100.00
44140;BME280;29803;51.048;4.686;2023-03-19T14:17:44;101479.09;;;15.57;100.00
44140;BME280;29803;51.048;4.686;2023-03-19T14:20:22;101491.84;;;15.48;100.00
44140;BME280;29803;51.048;4.686;2023-03-19T14:28:59;101498.72;;;15.13;100.00
44140;BME280;29803;51.048;4.686;2023-03-19T14:31:48;101512.34;;;14.97;100.00
44140;BME280;29803;51.048;4.686;2023-03-19T14:36:57;101510.63;;;14.73;100.00
44140;BME280;29803;51.048;4.686;2023-03-19T14:39:32;101512.00;;;14.69;100.00
44140;BME280;29803;51.048;4.686;2023-03-19T14:42:07;101517.09;;;14.64;100.00
44140;BME280;29803;51.048;4.686;2023-03-19T14:50:26;101508.75;;;14.34;100.00
44140;BME280;29803;51.048;4.686;2023-03-19T14:53:21;101507.59;;;14.29;100.00
44140;BME280;29803;51.048;4.686;2023-03-19T14:55:54;101516.97;;;14.02;100.00
44140;BME280;29803;51.048;4.686;2023-03-19T14:58:25;101524.94;;;13.79;100.00
44140;BME280;29803;51.048;4.686;2023-03-19T15:00:56;101521.75;;;13.42;100.00
44140;BME280;29803;51.048;4.686;2023-03-19T15:05:59;101527.41;;;12.90;100.00
44140;BME280;29803;51.048;4.686;2023-03-19T15:08:31;101526.53;;;12.82;100.00
44140;BME280;29803;51.048;4.686;2023-03-19T15:16:54;101530.59;;;12.86;100.00
44140;BME280;29803;51.048;4.686;2023-03-19T15:19:31;101527.81;;;12.69;100.00
44140;BME280;29803;51.048;4.686;2023-03-19T15:22:04;101541.47;;;12.68;100.00
44140;BME280;29803;51.048;4.686;2023-03-19T15:24:35;101537.63;;;12.70;100.00
44140;BME280;29803;51.048;4.686;2023-03-19T15:27:17;101547.69;;;12.60;100.00
44140;BME280;29803;51.048;4.686;2023-03-19T15:29:48;101545.47;;;12.64;100.00
44140;BME280;29803;51.048;4.686;2023-03-19T15:32:36;101539.91;;;12.57;100.00